Terminal Aerodrome Forecast
Issued by NWS

Home | Current Version | Previous Version | Text Only | Print | Product List | Glossary On
Versions: 1 2 3 4 5 6 7 8 9 10 11 12 13 14 15 16 17 18 19 20 21 22
000
FTUS43 KPAH 031720
TAFOWB
TAF
KOWB 031720Z 0318/0418 28010KT P6SM SCT040
     FM040000 31005KT P6SM FEW050 SCT250
     FM041400 VRB04KT P6SM FEW050 BKN250=

USA.gov is the U.S. government's official web portal to all federal, state and local government web resources and services.